Bismarck (BIS/KBIS)

Map

Destinations

Information

Location
Bismarck, ND
KBIS -
Bad Timezone: GMT-6
Local Time
GMT Time
00:17 / 12:17 am
Gates
Unassigned
No FAA reported delays
METAR KBIS 222352Z 13019G23KT 10SM CLR 07/M01 A2988 RMK AO2 PK WND 16028/2253 SLP136 T00671006 10094 20039 56018
TAF KBIS 222327Z 2300/2324 16018G25KT P6SM SCT250 FM230300 13006KT P6SM SCT200 WS020/18035KT FM230600 12005KT P6SM SCT200 FM231400 00000KT P6SM VCSH BKN090 FM232000 01004KT P6SM -RA BKN050
  • No charts available